sensor_id;sensor_type;location;lat;lon;timestamp;P1;durP1;ratioP1;P2;durP2;ratioP2
80249;SDS011;69561;37.974;23.708;2023-05-09T00:01:54;1.63;;;1.50;;
80249;SDS011;69561;37.974;23.708;2023-05-09T00:04:20;2.05;;;1.65;;
80249;SDS011;69561;37.974;23.708;2023-05-09T00:06:46;2.33;;;1.50;;
80249;SDS011;69561;37.974;23.708;2023-05-09T00:09:12;2.38;;;1.70;;
80249;SDS011;69561;37.974;23.708;2023-05-09T00:11:37;1.70;;;1.60;;
80249;SDS011;69561;37.974;23.708;2023-05-09T00:14:03;2.00;;;1.80;;
80249;SDS011;69561;37.974;23.708;2023-05-09T00:16:29;2.15;;;1.70;;
80249;SDS011;69561;37.974;23.708;2023-05-09T00:18:57;2.45;;;1.80;;
80249;SDS011;69561;37.974;23.708;2023-05-09T00:21:23;2.90;;;1.80;;
80249;SDS011;69561;37.974;23.708;2023-05-09T00:23:48;2.45;;;1.80;;
80249;SDS011;69561;37.974;23.708;2023-05-09T00:26:14;2.58;;;1.90;;
80249;SDS011;69561;37.974;23.708;2023-05-09T00:28:40;2.30;;;2.03;;
80249;SDS011;69561;37.974;23.708;2023-05-09T00:31:06;1.88;;;1.65;;
80249;SDS011;69561;37.974;23.708;2023-05-09T00:33:31;2.13;;;1.92;;
80249;SDS011;69561;37.974;23.708;2023-05-09T00:35:57;2.38;;;1.95;;
80249;SDS011;69561;37.974;23.708;2023-05-09T00:38:23;1.88;;;1.75;;
80249;SDS011;69561;37.974;23.708;2023-05-09T00:40:49;3.50;;;2.15;;
80249;SDS011;69561;37.974;23.708;2023-05-09T00:43:14;2.38;;;1.88;;
80249;SDS011;69561;37.974;23.708;2023-05-09T00:45:41;2.08;;;1.85;;
80249;SDS011;69561;37.974;23.708;2023-05-09T00:48:07;1.90;;;1.80;;
80249;SDS011;69561;37.974;23.708;2023-05-09T00:50:33;2.55;;;2.03;;
80249;SDS011;69561;37.974;23.708;2023-05-09T00:52:59;2.65;;;2.00;;
80249;SDS011;69561;37.974;23.708;2023-05-09T00:55:25;1.95;;;1.75;;
80249;SDS011;69561;37.974;23.708;2023-05-09T00:57:51;3.30;;;1.90;;
80249;SDS011;69561;37.974;23.708;2023-05-09T01:00:17;2.35;;;2.15;;
80249;SDS011;69561;37.974;23.708;2023-05-09T01:02:44;2.50;;;1.85;;
80249;SDS011;69561;37.974;23.708;2023-05-09T01:05:12;2.20;;;1.80;;
80249;SDS011;69561;37.974;23.708;2023-05-09T01:07:49;2.40;;;2.20;;
80249;SDS011;69561;37.974;23.708;2023-05-09T01:12:59;2.88;;;1.98;;
80249;SDS011;69561;37.974;23.708;2023-05-09T01:20:42;2.63;;;2.08;;
80249;SDS011;69561;37.974;23.708;2023-05-09T01:28:34;2.60;;;2.28;;
80249;SDS011;69561;37.974;23.708;2023-05-09T01:31:12;2.70;;;2.05;;
80249;SDS011;69561;37.974;23.708;2023-05-09T01:33:40;3.13;;;2.22;;
80249;SDS011;69561;37.974;23.708;2023-05-09T01:36:14;2.90;;;2.25;;
80249;SDS011;69561;37.974;23.708;2023-05-09T01:38:43;2.95;;;2.15;;
80249;SDS011;69561;37.974;23.708;2023-05-09T01:41:11;3.30;;;2.15;;
80249;SDS011;69561;37.974;23.708;2023-05-09T01:43:41;2.40;;;2.20;;
80249;SDS011;69561;37.974;23.708;2023-05-09T01:46:09;3.65;;;2.15;;
80249;SDS011;69561;37.974;23.708;2023-05-09T01:48:36;3.22;;;2.25;;
80249;SDS011;69561;37.974;23.708;2023-05-09T01:51:05;2.33;;;2.13;;
80249;SDS011;69561;37.974;23.708;2023-05-09T01:53:32;2.78;;;2.15;;
80249;SDS011;69561;37.974;23.708;2023-05-09T01:55:58;2.65;;;2.08;;
80249;SDS011;69561;37.974;23.708;2023-05-09T01:58:25;3.17;;;2.13;;
80249;SDS011;69561;37.974;23.708;2023-05-09T02:00:53;2.63;;;2.10;;
80249;SDS011;69561;37.974;23.708;2023-05-09T02:03:18;2.40;;;2.20;;
80249;SDS011;69561;37.974;23.708;2023-05-09T02:05:45;2.20;;;2.00;;
80249;SDS011;69561;37.974;23.708;2023-05-09T02:08:12;2.53;;;2.10;;
80249;SDS011;69561;37.974;23.708;2023-05-09T02:10:39;2.88;;;2.10;;
80249;SDS011;69561;37.974;23.708;2023-05-09T02:13:05;2.72;;;2.28;;
80249;SDS011;69561;37.974;23.708;2023-05-09T02:15:31;2.88;;;2.33;;
80249;SDS011;69561;37.974;23.708;2023-05-09T02:17:57;2.95;;;2.28;;
80249;SDS011;69561;37.974;23.708;2023-05-09T02:20:23;3.95;;;2.10;;
80249;SDS011;69561;37.974;23.708;2023-05-09T02:22:49;3.65;;;2.70;;
80249;SDS011;69561;37.974;23.708;2023-05-09T02:25:15;3.30;;;2.15;;
80249;SDS011;69561;37.974;23.708;2023-05-09T02:27:42;2.30;;;2.10;;
80249;SDS011;69561;37.974;23.708;2023-05-09T02:30:11;3.90;;;2.20;;
80249;SDS011;69561;37.974;23.708;2023-05-09T02:32:41;2.70;;;2.33;;
80249;SDS011;69561;37.974;23.708;2023-05-09T02:35:09;2.63;;;2.13;;
80249;SDS011;69561;37.974;23.708;2023-05-09T02:37:36;2.45;;;2.20;;
80249;SDS011;69561;37.974;23.708;2023-05-09T02:40:03;2.40;;;2.00;;
80249;SDS011;69561;37.974;23.708;2023-05-09T02:42:33;2.95;;;2.20;;
80249;SDS011;69561;37.974;23.708;2023-05-09T02:44:59;3.15;;;2.65;;
80249;SDS011;69561;37.974;23.708;2023-05-09T02:47:24;2.58;;;2.20;;
80249;SDS011;69561;37.974;23.708;2023-05-09T02:49:50;4.35;;;2.33;;
80249;SDS011;69561;37.974;23.708;2023-05-09T02:52:16;3.40;;;2.60;;
80249;SDS011;69561;37.974;23.708;2023-05-09T02:54:41;2.25;;;2.05;;
80249;SDS011;69561;37.974;23.708;2023-05-09T02:57:07;4.13;;;2.47;;
80249;SDS011;69561;37.974;23.708;2023-05-09T02:59:33;2.47;;;2.22;;
80249;SDS011;69561;37.974;23.708;2023-05-09T03:01:58;2.83;;;2.40;;
80249;SDS011;69561;37.974;23.708;2023-05-09T03:04:24;2.63;;;2.25;;
80249;SDS011;69561;37.974;23.708;2023-05-09T03:06:50;2.90;;;2.40;;
80249;SDS011;69561;37.974;23.708;2023-05-09T03:09:16;2.55;;;2.35;;
80249;SDS011;69561;37.974;23.708;2023-05-09T03:11:42;2.65;;;2.30;;
80249;SDS011;69561;37.974;23.708;2023-05-09T03:14:08;2.75;;;2.33;;
80249;SDS011;69561;37.974;23.708;2023-05-09T03:16:35;4.32;;;2.30;;
80249;SDS011;69561;37.974;23.708;2023-05-09T03:19:01;3.28;;;2.30;;
80249;SDS011;69561;37.974;23.708;2023-05-09T03:21:27;3.55;;;2.30;;
80249;SDS011;69561;37.974;23.708;2023-05-09T03:23:53;2.65;;;2.13;;
80249;SDS011;69561;37.974;23.708;2023-05-09T03:26:19;2.53;;;2.10;;
80249;SDS011;69561;37.974;23.708;2023-05-09T03:28:45;3.55;;;2.60;;
80249;SDS011;69561;37.974;23.708;2023-05-09T03:31:12;3.95;;;2.45;;
80249;SDS011;69561;37.974;23.708;2023-05-09T03:33:38;3.28;;;2.30;;
80249;SDS011;69561;37.974;23.708;2023-05-09T03:36:04;2.67;;;2.15;;
80249;SDS011;69561;37.974;23.708;2023-05-09T03:38:30;2.90;;;2.20;;
80249;SDS011;69561;37.974;23.708;2023-05-09T03:40:56;3.13;;;2.50;;
80249;SDS011;69561;37.974;23.708;2023-05-09T03:43:21;6.75;;;2.20;;
80249;SDS011;69561;37.974;23.708;2023-05-09T03:45:47;2.35;;;1.90;;
80249;SDS011;69561;37.974;23.708;2023-05-09T03:48:13;7.15;;;2.20;;
80249;SDS011;69561;37.974;23.708;2023-05-09T03:50:39;2.58;;;1.90;;
80249;SDS011;69561;37.974;23.708;2023-05-09T03:53:05;3.13;;;2.50;;
80249;SDS011;69561;37.974;23.708;2023-05-09T03:55:30;3.65;;;2.00;;
80249;SDS011;69561;37.974;23.708;2023-05-09T03:57:56;3.20;;;1.80;;
80249;SDS011;69561;37.974;23.708;2023-05-09T04:00:22;3.10;;;2.10;;
80249;SDS011;69561;37.974;23.708;2023-05-09T04:02:48;4.28;;;1.88;;
80249;SDS011;69561;37.974;23.708;2023-05-09T04:05:14;2.80;;;1.90;;
80249;SDS011;69561;37.974;23.708;2023-05-09T04:07:40;2.47;;;1.90;;
80249;SDS011;69561;37.974;23.708;2023-05-09T04:10:06;2.10;;;1.90;;
80249;SDS011;69561;37.974;23.708;2023-05-09T04:12:32;4.68;;;2.10;;
80249;SDS011;69561;37.974;23.708;2023-05-09T04:14:58;3.28;;;1.80;;
80249;SDS011;69561;37.974;23.708;2023-05-09T04:17:24;2.53;;;1.63;;
80249;SDS011;69561;37.974;23.708;2023-05-09T04:19:50;5.18;;;1.85;;
80249;SDS011;69561;37.974;23.708;2023-05-09T04:22:16;2.60;;;1.80;;
80249;SDS011;69561;37.974;23.708;2023-05-09T04:24:41;6.40;;;1.92;;
80249;SDS011;69561;37.974;23.708;2023-05-09T04:27:07;4.03;;;2.08;;
80249;SDS011;69561;37.974;23.708;2023-05-09T04:29:33;4.03;;;2.10;;
80249;SDS011;69561;37.974;23.708;2023-05-09T04:31:59;2.22;;;1.90;;
80249;SDS011;69561;37.974;23.708;2023-05-09T04:34:26;3.47;;;1.98;;
80249;SDS011;69561;37.974;23.708;2023-05-09T04:36:53;2.95;;;2.13;;
80249;SDS011;69561;37.974;23.708;2023-05-09T04:39:19;9.63;;;2.00;;
80249;SDS011;69561;37.974;23.708;2023-05-09T04:41:45;4.03;;;1.75;;
80249;SDS011;69561;37.974;23.708;2023-05-09T04:44:15;5.68;;;2.00;;
80249;SDS011;69561;37.974;23.708;2023-05-09T04:46:41;5.07;;;2.13;;
80249;SDS011;69561;37.974;23.708;2023-05-09T04:49:07;4.55;;;2.20;;
80249;SDS011;69561;37.974;23.708;2023-05-09T04:51:33;6.85;;;2.40;;
80249;SDS011;69561;37.974;23.708;2023-05-09T04:53:59;11.93;;;2.38;;
80249;SDS011;69561;37.974;23.708;2023-05-09T04:56:24;17.15;;;2.70;;
80249;SDS011;69561;37.974;23.708;2023-05-09T04:58:50;4.95;;;2.30;;
80249;SDS011;69561;37.974;23.708;2023-05-09T05:01:16;11.13;;;3.10;;
80249;SDS011;69561;37.974;23.708;2023-05-09T05:03:42;6.28;;;2.50;;
80249;SDS011;69561;37.974;23.708;2023-05-09T05:06:08;7.18;;;2.38;;
80249;SDS011;69561;37.974;23.708;2023-05-09T05:08:34;6.18;;;2.80;;
80249;SDS011;69561;37.974;23.708;2023-05-09T05:10:59;7.68;;;2.20;;
80249;SDS011;69561;37.974;23.708;2023-05-09T05:13:25;8.32;;;2.60;;
80249;SDS011;69561;37.974;23.708;2023-05-09T05:15:51;5.00;;;2.20;;
80249;SDS011;69561;37.974;23.708;2023-05-09T05:18:17;9.43;;;2.08;;
80249;SDS011;69561;37.974;23.708;2023-05-09T05:20:42;2.83;;;1.98;;
80249;SDS011;69561;37.974;23.708;2023-05-09T05:23:08;6.68;;;2.20;;
80249;SDS011;69561;37.974;23.708;2023-05-09T05:25:34;3.47;;;1.70;;
80249;SDS011;69561;37.974;23.708;2023-05-09T05:28:00;3.22;;;2.45;;
80249;SDS011;69561;37.974;23.708;2023-05-09T05:30:26;6.43;;;2.03;;
80249;SDS011;69561;37.974;23.708;2023-05-09T05:32:52;4.53;;;1.60;;
80249;SDS011;69561;37.974;23.708;2023-05-09T05:35:17;4.13;;;2.30;;
80249;SDS011;69561;37.974;23.708;2023-05-09T05:37:46;2.75;;;1.60;;
80249;SDS011;69561;37.974;23.708;2023-05-09T05:40:12;2.65;;;2.00;;
80249;SDS011;69561;37.974;23.708;2023-05-09T05:42:37;3.15;;;1.70;;
80249;SDS011;69561;37.974;23.708;2023-05-09T05:45:03;7.82;;;1.85;;
80249;SDS011;69561;37.974;23.708;2023-05-09T05:47:30;4.80;;;1.80;;
80249;SDS011;69561;37.974;23.708;2023-05-09T05:49:57;5.68;;;2.20;;
80249;SDS011;69561;37.974;23.708;2023-05-09T05:52:23;2.83;;;2.08;;
80249;SDS011;69561;37.974;23.708;2023-05-09T05:54:49;3.08;;;2.17;;
80249;SDS011;69561;37.974;23.708;2023-05-09T05:57:14;6.45;;;2.50;;
80249;SDS011;69561;37.974;23.708;2023-05-09T05:59:40;2.17;;;1.83;;
80249;SDS011;69561;37.974;23.708;2023-05-09T06:02:06;4.57;;;2.17;;
80249;SDS011;69561;37.974;23.708;2023-05-09T06:04:31;10.30;;;2.60;;
80249;SDS011;69561;37.974;23.708;2023-05-09T06:06:57;12.65;;;2.55;;
80249;SDS011;69561;37.974;23.708;2023-05-09T06:09:23;5.78;;;2.33;;
80249;SDS011;69561;37.974;23.708;2023-05-09T06:11:48;10.82;;;2.63;;
80249;SDS011;69561;37.974;23.708;2023-05-09T06:14:14;10.10;;;2.33;;
80249;SDS011;69561;37.974;23.708;2023-05-09T06:16:40;19.40;;;2.70;;
80249;SDS011;69561;37.974;23.708;2023-05-09T06:19:05;8.38;;;2.22;;
80249;SDS011;69561;37.974;23.708;2023-05-09T06:21:31;13.07;;;2.20;;
80249;SDS011;69561;37.974;23.708;2023-05-09T06:23:58;10.65;;;1.90;;
80249;SDS011;69561;37.974;23.708;2023-05-09T06:26:24;20.23;;;2.28;;
80249;SDS011;69561;37.974;23.708;2023-05-09T06:28:50;6.05;;;2.22;;
80249;SDS011;69561;37.974;23.708;2023-05-09T06:31:16;5.70;;;1.75;;
80249;SDS011;69561;37.974;23.708;2023-05-09T06:33:41;5.00;;;1.63;;
80249;SDS011;69561;37.974;23.708;2023-05-09T06:36:07;6.20;;;1.80;;
80249;SDS011;69561;37.974;23.708;2023-05-09T06:38:33;4.40;;;1.67;;
80249;SDS011;69561;37.974;23.708;2023-05-09T06:40:59;4.10;;;1.48;;
80249;SDS011;69561;37.974;23.708;2023-05-09T06:43:25;4.88;;;2.08;;
80249;SDS011;69561;37.974;23.708;2023-05-09T06:45:51;2.13;;;1.33;;
80249;SDS011;69561;37.974;23.708;2023-05-09T06:48:17;5.00;;;1.38;;
80249;SDS011;69561;37.974;23.708;2023-05-09T06:50:42;2.78;;;1.27;;
80249;SDS011;69561;37.974;23.708;2023-05-09T06:53:08;3.08;;;1.30;;
80249;SDS011;69561;37.974;23.708;2023-05-09T06:55:34;4.03;;;1.40;;
80249;SDS011;69561;37.974;23.708;2023-05-09T06:58:00;2.20;;;1.13;;
80249;SDS011;69561;37.974;23.708;2023-05-09T07:00:25;4.63;;;1.50;;
80249;SDS011;69561;37.974;23.708;2023-05-09T07:02:51;1.92;;;1.20;;
80249;SDS011;69561;37.974;23.708;2023-05-09T07:05:17;2.83;;;1.20;;
80249;SDS011;69561;37.974;23.708;2023-05-09T07:07:42;2.00;;;1.20;;
80249;SDS011;69561;37.974;23.708;2023-05-09T07:10:08;2.58;;;1.27;;
80249;SDS011;69561;37.974;23.708;2023-05-09T07:12:34;2.05;;;1.30;;
80249;SDS011;69561;37.974;23.708;2023-05-09T07:15:00;5.25;;;1.30;;
80249;SDS011;69561;37.974;23.708;2023-05-09T07:17:26;5.82;;;1.55;;
80249;SDS011;69561;37.974;23.708;2023-05-09T07:19:51;1.50;;;1.30;;
80249;SDS011;69561;37.974;23.708;2023-05-09T07:22:17;4.93;;;1.30;;
80249;SDS011;69561;37.974;23.708;2023-05-09T07:24:43;5.32;;;1.80;;
80249;SDS011;69561;37.974;23.708;2023-05-09T07:27:10;3.47;;;2.08;;
80249;SDS011;69561;37.974;23.708;2023-05-09T07:29:36;6.82;;;2.35;;
80249;SDS011;69561;37.974;23.708;2023-05-09T07:32:01;5.65;;;2.17;;
80249;SDS011;69561;37.974;23.708;2023-05-09T07:34:27;4.43;;;2.05;;
80249;SDS011;69561;37.974;23.708;2023-05-09T07:36:53;4.05;;;2.30;;
80249;SDS011;69561;37.974;23.708;2023-05-09T07:39:18;5.68;;;2.45;;
80249;SDS011;69561;37.974;23.708;2023-05-09T07:41:45;4.78;;;2.13;;
80249;SDS011;69561;37.974;23.708;2023-05-09T07:44:10;10.40;;;2.13;;
80249;SDS011;69561;37.974;23.708;2023-05-09T07:46:36;9.05;;;2.40;;
80249;SDS011;69561;37.974;23.708;2023-05-09T07:49:04;5.82;;;2.47;;
80249;SDS011;69561;37.974;23.708;2023-05-09T07:51:30;7.60;;;2.50;;
80249;SDS011;69561;37.974;23.708;2023-05-09T07:53:57;11.55;;;2.30;;
80249;SDS011;69561;37.974;23.708;2023-05-09T07:56:22;5.30;;;2.47;;
80249;SDS011;69561;37.974;23.708;2023-05-09T07:58:48;5.15;;;1.95;;
80249;SDS011;69561;37.974;23.708;2023-05-09T08:01:14;6.20;;;2.50;;
80249;SDS011;69561;37.974;23.708;2023-05-09T08:03:40;5.50;;;2.45;;
80249;SDS011;69561;37.974;23.708;2023-05-09T08:06:06;4.13;;;2.50;;
80249;SDS011;69561;37.974;23.708;2023-05-09T08:08:31;4.53;;;2.05;;
80249;SDS011;69561;37.974;23.708;2023-05-09T08:10:57;7.60;;;2.58;;
80249;SDS011;69561;37.974;23.708;2023-05-09T08:13:23;4.80;;;2.47;;
80249;SDS011;69561;37.974;23.708;2023-05-09T08:15:49;7.22;;;2.45;;
80249;SDS011;69561;37.974;23.708;2023-05-09T08:18:15;8.07;;;2.70;;
80249;SDS011;69561;37.974;23.708;2023-05-09T08:20:41;6.40;;;2.60;;
80249;SDS011;69561;37.974;23.708;2023-05-09T08:23:06;4.35;;;2.70;;
80249;SDS011;69561;37.974;23.708;2023-05-09T08:25:32;7.05;;;2.33;;
80249;SDS011;69561;37.974;23.708;2023-05-09T08:27:58;7.80;;;2.28;;
80249;SDS011;69561;37.974;23.708;2023-05-09T08:30:23;5.97;;;2.20;;
80249;SDS011;69561;37.974;23.708;2023-05-09T08:32:49;4.20;;;2.10;;
80249;SDS011;69561;37.974;23.708;2023-05-09T08:35:15;3.17;;;2.35;;
80249;SDS011;69561;37.974;23.708;2023-05-09T08:37:40;3.08;;;1.80;;
80249;SDS011;69561;37.974;23.708;2023-05-09T08:40:06;3.97;;;2.15;;
80249;SDS011;69561;37.974;23.708;2023-05-09T08:42:33;12.43;;;2.47;;
80249;SDS011;69561;37.974;23.708;2023-05-09T08:45:04;4.80;;;2.40;;
80249;SDS011;69561;37.974;23.708;2023-05-09T08:47:35;7.18;;;2.53;;
80249;SDS011;69561;37.974;23.708;2023-05-09T08:50:02;4.80;;;2.28;;
80249;SDS011;69561;37.974;23.708;2023-05-09T08:52:32;6.00;;;2.40;;
80249;SDS011;69561;37.974;23.708;2023-05-09T08:54:58;3.50;;;2.15;;
80249;SDS011;69561;37.974;23.708;2023-05-09T08:57:26;5.40;;;2.70;;
80249;SDS011;69561;37.974;23.708;2023-05-09T08:59:52;5.38;;;2.42;;
80249;SDS011;69561;37.974;23.708;2023-05-09T09:02:20;5.15;;;2.30;;
80249;SDS011;69561;37.974;23.708;2023-05-09T09:04:46;4.20;;;2.30;;
80249;SDS011;69561;37.974;23.708;2023-05-09T09:07:13;6.35;;;2.25;;
80249;SDS011;69561;37.974;23.708;2023-05-09T09:09:44;3.35;;;2.42;;
80249;SDS011;69561;37.974;23.708;2023-05-09T09:12:10;5.30;;;2.60;;
80249;SDS011;69561;37.974;23.708;2023-05-09T09:14:38;5.20;;;2.60;;
80249;SDS011;69561;37.974;23.708;2023-05-09T09:17:17;6.68;;;3.00;;
80249;SDS011;69561;37.974;23.708;2023-05-09T09:19:44;6.47;;;2.42;;
80249;SDS011;69561;37.974;23.708;2023-05-09T09:22:14;6.22;;;2.70;;
80249;SDS011;69561;37.974;23.708;2023-05-09T09:24:42;8.07;;;2.42;;
80249;SDS011;69561;37.974;23.708;2023-05-09T09:27:08;4.10;;;2.35;;
80249;SDS011;69561;37.974;23.708;2023-05-09T09:29:34;7.72;;;2.60;;
80249;SDS011;69561;37.974;23.708;2023-05-09T09:32:03;7.80;;;2.72;;
80249;SDS011;69561;37.974;23.708;2023-05-09T09:34:29;3.83;;;2.70;;
80249;SDS011;69561;37.974;23.708;2023-05-09T09:36:55;9.45;;;2.97;;
80249;SDS011;69561;37.974;23.708;2023-05-09T09:39:21;5.55;;;2.80;;
80249;SDS011;69561;37.974;23.708;2023-05-09T09:41:47;5.30;;;3.40;;
80249;SDS011;69561;37.974;23.708;2023-05-09T09:44:17;6.57;;;2.80;;
80249;SDS011;69561;37.974;23.708;2023-05-09T09:46:45;4.65;;;3.03;;
80249;SDS011;69561;37.974;23.708;2023-05-09T09:49:11;5.32;;;2.53;;
80249;SDS011;69561;37.974;23.708;2023-05-09T09:51:38;5.18;;;2.65;;
80249;SDS011;69561;37.974;23.708;2023-05-09T09:54:07;6.10;;;2.85;;
80249;SDS011;69561;37.974;23.708;2023-05-09T09:56:52;4.03;;;2.70;;
80249;SDS011;69561;37.974;23.708;2023-05-09T09:59:19;10.48;;;3.25;;
80249;SDS011;69561;37.974;23.708;2023-05-09T10:01:59;4.35;;;2.70;;
80249;SDS011;69561;37.974;23.708;2023-05-09T10:04:31;7.13;;;3.30;;
80249;SDS011;69561;37.974;23.708;2023-05-09T10:07:01;4.53;;;2.83;;
80249;SDS011;69561;37.974;23.708;2023-05-09T10:09:30;5.47;;;2.90;;
80249;SDS011;69561;37.974;23.708;2023-05-09T10:12:00;4.47;;;2.85;;
80249;SDS011;69561;37.974;23.708;2023-05-09T10:14:30;8.43;;;3.63;;
80249;SDS011;69561;37.974;23.708;2023-05-09T10:16:56;6.68;;;3.47;;
80249;SDS011;69561;37.974;23.708;2023-05-09T10:19:25;9.57;;;3.55;;
80249;SDS011;69561;37.974;23.708;2023-05-09T10:21:57;6.60;;;3.60;;
80249;SDS011;69561;37.974;23.708;2023-05-09T10:27:01;13.05;;;3.80;;
80249;SDS011;69561;37.974;23.708;2023-05-09T10:29:32;7.60;;;3.28;;
80249;SDS011;69561;37.974;23.708;2023-05-09T10:31:59;6.25;;;3.40;;
80249;SDS011;69561;37.974;23.708;2023-05-09T10:34:30;4.88;;;3.58;;
80249;SDS011;69561;37.974;23.708;2023-05-09T10:36:58;9.15;;;3.80;;
80249;SDS011;69561;37.974;23.708;2023-05-09T10:39:25;8.68;;;3.20;;
80249;SDS011;69561;37.974;23.708;2023-05-09T10:41:51;5.78;;;3.20;;
80249;SDS011;69561;37.974;23.708;2023-05-09T10:44:18;7.72;;;3.70;;
80249;SDS011;69561;37.974;23.708;2023-05-09T10:46:46;5.68;;;3.47;;
80249;SDS011;69561;37.974;23.708;2023-05-09T10:49:12;11.55;;;3.58;;
80249;SDS011;69561;37.974;23.708;2023-05-09T10:51:38;6.68;;;4.15;;
80249;SDS011;69561;37.974;23.708;2023-05-09T10:54:12;9.85;;;4.10;;
80249;SDS011;69561;37.974;23.708;2023-05-09T10:56:58;5.50;;;4.00;;
80249;SDS011;69561;37.974;23.708;2023-05-09T11:02:24;8.77;;;3.42;;
80249;SDS011;69561;37.974;23.708;2023-05-09T11:07:38;4.68;;;3.45;;
80249;SDS011;69561;37.974;23.708;2023-05-09T11:10:06;7.03;;;3.35;;
80249;SDS011;69561;37.974;23.708;2023-05-09T11:12:32;5.82;;;3.08;;
80249;SDS011;69561;37.974;23.708;2023-05-09T11:15:04;8.27;;;3.42;;
80249;SDS011;69561;37.974;23.708;2023-05-09T11:17:36;6.20;;;3.15;;
80249;SDS011;69561;37.974;23.708;2023-05-09T11:20:03;6.47;;;3.40;;
80249;SDS011;69561;37.974;23.708;2023-05-09T11:22:37;9.52;;;3.70;;
80249;SDS011;69561;37.974;23.708;2023-05-09T11:30:10;7.35;;;3.42;;
80249;SDS011;69561;37.974;23.708;2023-05-09T11:32:41;5.22;;;3.65;;
80249;SDS011;69561;37.974;23.708;2023-05-09T11:35:20;6.20;;;3.50;;
80249;SDS011;69561;37.974;23.708;2023-05-09T11:38:05;10.43;;;3.67;;
80249;SDS011;69561;37.974;23.708;2023-05-09T11:40:31;7.18;;;3.30;;
80249;SDS011;69561;37.974;23.708;2023-05-09T11:42:59;5.80;;;3.33;;
80249;SDS011;69561;37.974;23.708;2023-05-09T11:45:26;9.63;;;3.50;;
80249;SDS011;69561;37.974;23.708;2023-05-09T11:47:56;5.13;;;3.35;;
80249;SDS011;69561;37.974;23.708;2023-05-09T11:50:22;6.00;;;3.40;;
80249;SDS011;69561;37.974;23.708;2023-05-09T11:52:49;5.80;;;3.00;;
80249;SDS011;69561;37.974;23.708;2023-05-09T11:55:16;10.27;;;3.45;;
80249;SDS011;69561;37.974;23.708;2023-05-09T11:57:44;5.97;;;3.15;;
80249;SDS011;69561;37.974;23.708;2023-05-09T12:00:17;10.80;;;3.17;;
80249;SDS011;69561;37.974;23.708;2023-05-09T12:02:47;7.82;;;3.47;;
80249;SDS011;69561;37.974;23.708;2023-05-09T12:05:15;5.22;;;3.47;;
80249;SDS011;69561;37.974;23.708;2023-05-09T12:07:42;10.93;;;3.95;;
80249;SDS011;69561;37.974;23.708;2023-05-09T12:10:12;10.00;;;3.50;;
80249;SDS011;69561;37.974;23.708;2023-05-09T12:12:43;11.43;;;3.67;;
80249;SDS011;69561;37.974;23.708;2023-05-09T12:15:11;8.90;;;3.38;;
80249;SDS011;69561;37.974;23.708;2023-05-09T12:17:37;9.48;;;3.78;;
80249;SDS011;69561;37.974;23.708;2023-05-09T12:20:04;8.48;;;3.63;;
80249;SDS011;69561;37.974;23.708;2023-05-09T12:22:30;7.88;;;3.70;;
80249;SDS011;69561;37.974;23.708;2023-05-09T12:24:58;11.40;;;3.90;;
80249;SDS011;69561;37.974;23.708;2023-05-09T12:27:28;10.25;;;3.72;;
80249;SDS011;69561;37.974;23.708;2023-05-09T12:29:56;14.55;;;4.32;;
80249;SDS011;69561;37.974;23.708;2023-05-09T12:32:22;6.30;;;3.20;;
80249;SDS011;69561;37.974;23.708;2023-05-09T12:34:48;6.18;;;3.10;;
80249;SDS011;69561;37.974;23.708;2023-05-09T12:37:16;7.93;;;3.58;;
80249;SDS011;69561;37.974;23.708;2023-05-09T12:39:43;7.22;;;3.55;;
80249;SDS011;69561;37.974;23.708;2023-05-09T12:42:29;11.38;;;3.85;;
80249;SDS011;69561;37.974;23.708;2023-05-09T12:44:56;7.03;;;3.55;;
80249;SDS011;69561;37.974;23.708;2023-05-09T12:47:25;4.68;;;2.95;;
80249;SDS011;69561;37.974;23.708;2023-05-09T12:49:58;10.10;;;3.72;;
80249;SDS011;69561;37.974;23.708;2023-05-09T12:52:34;15.65;;;3.65;;
80249;SDS011;69561;37.974;23.708;2023-05-09T12:55:08;8.23;;;3.47;;
80249;SDS011;69561;37.974;23.708;2023-05-09T12:57:35;7.22;;;3.28;;
80249;SDS011;69561;37.974;23.708;2023-05-09T13:00:02;6.47;;;3.70;;
80249;SDS011;69561;37.974;23.708;2023-05-09T13:02:34;7.05;;;3.13;;
80249;SDS011;69561;37.974;23.708;2023-05-09T13:05:10;5.60;;;3.33;;
80249;SDS011;69561;37.974;23.708;2023-05-09T13:12:42;7.13;;;3.70;;
80249;SDS011;69561;37.974;23.708;2023-05-09T13:15:12;8.02;;;3.10;;
80249;SDS011;69561;37.974;23.708;2023-05-09T13:17:38;7.18;;;2.85;;
80249;SDS011;69561;37.974;23.708;2023-05-09T13:20:07;4.10;;;2.88;;
80249;SDS011;69561;37.974;23.708;2023-05-09T13:22:33;4.78;;;2.75;;
80249;SDS011;69561;37.974;23.708;2023-05-09T13:24:59;3.45;;;2.70;;
80249;SDS011;69561;37.974;23.708;2023-05-09T13:27:25;6.25;;;2.65;;
80249;SDS011;69561;37.974;23.708;2023-05-09T13:29:52;3.83;;;2.75;;
80249;SDS011;69561;37.974;23.708;2023-05-09T13:32:18;4.80;;;2.42;;
80249;SDS011;69561;37.974;23.708;2023-05-09T13:34:44;4.65;;;2.50;;
80249;SDS011;69561;37.974;23.708;2023-05-09T13:37:10;5.95;;;2.78;;
80249;SDS011;69561;37.974;23.708;2023-05-09T13:39:36;4.38;;;3.00;;
80249;SDS011;69561;37.974;23.708;2023-05-09T13:42:02;5.03;;;3.78;;
80249;SDS011;69561;37.974;23.708;2023-05-09T13:44:28;7.38;;;4.22;;
80249;SDS011;69561;37.974;23.708;2023-05-09T13:46:53;6.15;;;4.20;;
80249;SDS011;69561;37.974;23.708;2023-05-09T13:49:21;5.28;;;4.40;;
80249;SDS011;69561;37.974;23.708;2023-05-09T13:51:47;7.38;;;5.00;;
80249;SDS011;69561;37.974;23.708;2023-05-09T13:54:13;6.82;;;5.55;;
80249;SDS011;69561;37.974;23.708;2023-05-09T13:56:42;7.78;;;5.28;;
80249;SDS011;69561;37.974;23.708;2023-05-09T13:59:08;8.07;;;5.10;;
80249;SDS011;69561;37.974;23.708;2023-05-09T14:01:34;7.88;;;5.30;;
80249;SDS011;69561;37.974;23.708;2023-05-09T14:04:01;5.90;;;4.70;;
80249;SDS011;69561;37.974;23.708;2023-05-09T14:06:27;8.80;;;5.72;;
80249;SDS011;69561;37.974;23.708;2023-05-09T14:08:57;7.13;;;4.68;;
80249;SDS011;69561;37.974;23.708;2023-05-09T14:11:23;7.43;;;4.82;;
80249;SDS011;69561;37.974;23.708;2023-05-09T14:13:49;6.32;;;4.97;;
80249;SDS011;69561;37.974;23.708;2023-05-09T14:16:16;4.70;;;4.20;;
80249;SDS011;69561;37.974;23.708;2023-05-09T14:18:43;5.18;;;3.60;;
80249;SDS011;69561;37.974;23.708;2023-05-09T14:21:09;5.40;;;3.88;;
80249;SDS011;69561;37.974;23.708;2023-05-09T14:23:34;7.03;;;4.00;;
80249;SDS011;69561;37.974;23.708;2023-05-09T14:26:00;4.93;;;3.85;;
80249;SDS011;69561;37.974;23.708;2023-05-09T14:28:26;5.15;;;3.65;;
80249;SDS011;69561;37.974;23.708;2023-05-09T14:30:52;5.28;;;3.65;;
80249;SDS011;69561;37.974;23.708;2023-05-09T14:33:18;3.65;;;3.10;;
80249;SDS011;69561;37.974;23.708;2023-05-09T14:35:44;5.70;;;3.10;;
80249;SDS011;69561;37.974;23.708;2023-05-09T14:38:10;4.53;;;3.40;;
80249;SDS011;69561;37.974;23.708;2023-05-09T14:40:37;3.42;;;2.90;;
80249;SDS011;69561;37.974;23.708;2023-05-09T14:43:02;3.85;;;2.95;;
80249;SDS011;69561;37.974;23.708;2023-05-09T14:45:30;4.97;;;2.90;;
80249;SDS011;69561;37.974;23.708;2023-05-09T14:47:59;2.67;;;2.40;;
80249;SDS011;69561;37.974;23.708;2023-05-09T14:50:28;4.10;;;2.72;;
80249;SDS011;69561;37.974;23.708;2023-05-09T14:52:54;3.80;;;2.58;;
80249;SDS011;69561;37.974;23.708;2023-05-09T14:55:20;3.65;;;2.65;;
80249;SDS011;69561;37.974;23.708;2023-05-09T14:57:47;5.03;;;2.55;;
80249;SDS011;69561;37.974;23.708;2023-05-09T15:00:13;3.75;;;2.40;;
80249;SDS011;69561;37.974;23.708;2023-05-09T15:02:40;3.92;;;2.45;;
80249;SDS011;69561;37.974;23.708;2023-05-09T15:05:06;3.95;;;2.40;;